createdAt,value
2023-02-21T00:00:48.812Z,10.73
2023-02-21T00:03:33.570Z,10.77
2023-02-21T00:06:18.386Z,10.77
2023-02-21T00:09:03.457Z,10.77
2023-02-21T00:11:48.145Z,10.93
2023-02-21T00:14:34.884Z,10.80
2023-02-21T00:17:19.645Z,10.81
2023-02-21T00:20:04.893Z,10.71
2023-02-21T00:22:49.559Z,10.66
2023-02-21T00:25:34.886Z,10.72
2023-02-21T00:28:20.145Z,10.81
2023-02-21T00:31:06.715Z,10.78
2023-02-21T00:33:54.063Z,10.72
2023-02-21T00:36:38.697Z,10.70
2023-02-21T00:39:24.084Z,10.72
2023-02-21T00:42:09.011Z,10.61
2023-02-21T00:44:53.676Z,10.50
2023-02-21T00:47:40.248Z,10.55
2023-02-21T00:50:25.365Z,10.43
2023-02-21T00:53:10.225Z,10.44
2023-02-21T00:55:55.383Z,10.58
2023-02-21T00:58:40.834Z,10.58
2023-02-21T01:01:26.259Z,10.63
2023-02-21T01:04:12.689Z,10.55
2023-02-21T01:06:57.849Z,10.61
2023-02-21T01:09:42.488Z,10.53
2023-02-21T01:12:27.309Z,10.53
2023-02-21T01:15:12.073Z,10.54
2023-02-21T01:17:56.786Z,10.62
2023-02-21T01:20:43.468Z,10.61
2023-02-21T01:23:28.471Z,10.59
2023-02-21T01:26:13.333Z,10.54
2023-02-21T01:28:58.714Z,10.70
2023-02-21T01:31:43.428Z,10.63
2023-02-21T01:34:28.215Z,10.64
2023-02-21T01:37:14.667Z,10.62
2023-02-21T01:39:59.612Z,10.61
2023-02-21T01:42:46.995Z,10.73
2023-02-21T01:45:57.307Z,10.56
2023-02-21T01:48:45.046Z,10.62
2023-02-21T01:51:31.428Z,10.60
2023-02-21T01:54:18.559Z,10.62
2023-02-21T01:57:04.136Z,10.76
2023-02-21T01:59:50.003Z,10.59
2023-02-21T02:02:41.407Z,10.64
2023-02-21T02:05:29.485Z,10.72
2023-02-21T02:08:14.672Z,10.68
2023-02-21T02:11:02.700Z,10.76
2023-02-21T02:13:54.790Z,10.68
2023-02-21T02:16:32.882Z,10.69
2023-02-21T02:19:26.051Z,10.68
2023-02-21T02:22:19.840Z,10.68
2023-02-21T02:25:15.624Z,10.75
2023-02-21T02:27:52.187Z,10.86
2023-02-21T02:30:52.459Z,10.85
2023-02-21T02:33:50.921Z,10.85
2023-02-21T02:36:23.410Z,10.84
2023-02-21T02:39:00.593Z,10.83
2023-02-21T02:41:39.011Z,10.85
2023-02-21T02:44:14.777Z,10.90
2023-02-21T02:46:44.351Z,10.88
2023-02-21T02:49:18.202Z,10.91
2023-02-21T02:51:48.796Z,10.96
2023-02-21T02:54:16.385Z,10.89
2023-02-21T02:56:43.880Z,10.91
2023-02-21T02:59:12.732Z,10.84
2023-02-21T03:01:59.833Z,10.86
2023-02-21T03:04:42.123Z,10.97
2023-02-21T03:07:22.234Z,10.80
2023-02-21T03:09:58.987Z,10.85
2023-02-21T03:12:39.380Z,10.84
2023-02-21T03:15:12.928Z,10.97
2023-02-21T03:17:43.912Z,11.01
2023-02-21T03:20:15.227Z,10.91
2023-02-21T03:22:47.200Z,10.99
2023-02-21T03:25:16.975Z,10.86
2023-02-21T03:27:45.639Z,10.87
2023-02-21T03:30:14.058Z,10.97
2023-02-21T03:32:46.171Z,10.92
2023-02-21T03:35:13.882Z,10.90
2023-02-21T03:37:45.052Z,10.95
2023-02-21T03:40:16.041Z,10.95
2023-02-21T03:42:43.602Z,11.00
2023-02-21T03:45:11.369Z,10.99
2023-02-21T03:47:38.801Z,10.96
2023-02-21T03:50:07.378Z,11.03
2023-02-21T03:52:34.857Z,11.00
2023-02-21T03:55:04.189Z,11.05
2023-02-21T03:57:31.607Z,11.05
2023-02-21T03:59:59.089Z,11.04
2023-02-21T04:02:26.961Z,11.10
2023-02-21T04:04:55.061Z,11.08
2023-02-21T04:07:22.757Z,11.08
2023-02-21T04:09:50.699Z,10.99
2023-02-21T04:12:19.531Z,11.05
2023-02-21T04:14:47.017Z,10.98
2023-02-21T04:17:16.103Z,11.01
2023-02-21T04:19:43.534Z,11.01
2023-02-21T04:22:10.956Z,10.98
2023-02-21T04:24:38.437Z,10.97
2023-02-21T04:27:05.875Z,10.99
2023-02-21T04:29:34.781Z,11.08
2023-02-21T04:32:03.073Z,11.03
2023-02-21T04:34:30.678Z,11.11
2023-02-21T04:36:58.105Z,10.98
2023-02-21T04:39:25.634Z,11.00
2023-02-21T04:41:53.038Z,10.92
2023-02-21T04:44:20.454Z,10.95
2023-02-21T04:46:49.222Z,11.07
2023-02-21T04:49:16.820Z,10.95
2023-02-21T04:51:44.252Z,10.97
2023-02-21T04:54:14.010Z,11.03
2023-02-21T04:56:41.622Z,10.98
2023-02-21T04:59:09.045Z,11.10
2023-02-21T05:01:36.565Z,11.03
2023-02-21T05:04:05.826Z,11.05
2023-02-21T05:06:34.361Z,11.00
2023-02-21T05:09:02.324Z,11.03
2023-02-21T05:11:34.524Z,11.02
2023-02-21T05:14:02.244Z,11.08
2023-02-21T05:16:29.815Z,11.11
2023-02-21T05:18:57.218Z,11.07
2023-02-21T05:21:25.925Z,11.07
2023-02-21T05:23:59.126Z,11.10
2023-02-21T05:26:31.458Z,11.06
2023-02-21T05:28:58.867Z,11.13
2023-02-21T05:31:26.327Z,11.13
2023-02-21T05:33:53.845Z,11.21
2023-02-21T05:36:24.414Z,11.16
2023-02-21T05:38:55.747Z,11.32
2023-02-21T05:41:23.695Z,11.19
2023-02-21T05:43:51.768Z,11.25
2023-02-21T05:46:21.255Z,11.21
2023-02-21T05:48:48.872Z,11.25
2023-02-21T05:51:17.192Z,11.18
2023-02-21T05:53:44.773Z,11.28
2023-02-21T05:56:13.765Z,11.25
2023-02-21T05:58:41.235Z,11.28
2023-02-21T06:01:08.987Z,11.24
2023-02-21T06:03:36.534Z,11.24
2023-02-21T06:06:04.483Z,11.26
2023-02-21T06:08:32.069Z,11.20
2023-02-21T06:10:59.485Z,11.25
2023-02-21T06:13:28.170Z,11.12
2023-02-21T06:15:56.133Z,11.16
2023-02-21T06:18:23.519Z,11.17
2023-02-21T06:20:50.873Z,11.11
2023-02-21T06:23:18.209Z,11.16
2023-02-21T06:25:45.643Z,11.07
2023-02-21T06:28:13.006Z,11.08
2023-02-21T06:30:41.817Z,11.15
2023-02-21T06:33:09.284Z,11.09
2023-02-21T06:35:36.644Z,11.18
2023-02-21T06:38:04.081Z,11.19
2023-02-21T06:40:31.436Z,11.16
2023-02-21T06:42:58.813Z,11.15
2023-02-21T06:45:26.161Z,11.15
2023-02-21T06:47:54.833Z,11.18
2023-02-21T06:50:22.199Z,11.11
2023-02-21T06:52:49.560Z,11.25
2023-02-21T06:55:22.569Z,11.20
2023-02-21T06:57:51.689Z,11.14
2023-02-21T07:00:19.758Z,11.19
2023-02-21T07:02:47.017Z,11.23
2023-02-21T07:05:16.106Z,11.25
2023-02-21T07:07:43.929Z,11.24
2023-02-21T07:10:11.453Z,11.23
2023-02-21T07:12:38.827Z,11.30
2023-02-21T07:15:06.901Z,11.34
2023-02-21T07:17:34.195Z,11.34
2023-02-21T07:20:01.559Z,11.31
2023-02-21T07:22:30.286Z,11.18
2023-02-21T07:24:57.851Z,11.32
2023-02-21T07:27:25.318Z,11.32
2023-02-21T07:29:52.696Z,11.42
2023-02-21T07:32:20.194Z,11.51
2023-02-21T07:34:47.577Z,11.45
2023-02-21T07:37:15.569Z,11.44
2023-02-21T07:39:44.446Z,11.60
2023-02-21T07:42:13.486Z,11.38
2023-02-21T07:44:40.920Z,11.36
2023-02-21T07:47:10.571Z,11.46
2023-02-21T07:49:39.316Z,11.44
2023-02-21T07:52:07.597Z,11.46
2023-02-21T07:54:34.998Z,11.35
2023-02-21T07:57:03.720Z,11.45
2023-02-21T07:59:31.275Z,11.45
2023-02-21T08:01:58.736Z,11.57
2023-02-21T08:04:26.184Z,11.42
2023-02-21T08:06:53.574Z,11.38
2023-02-21T08:09:22.701Z,11.41
2023-02-21T08:11:50.137Z,11.53
2023-02-21T08:14:18.900Z,11.43
2023-02-21T08:16:46.291Z,11.34
2023-02-21T08:19:13.678Z,11.42
2023-02-21T08:21:45.861Z,11.41
2023-02-21T08:24:13.876Z,11.40
2023-02-21T08:26:42.006Z,11.42
2023-02-21T08:29:09.952Z,11.35
2023-02-21T08:31:40.594Z,11.47
2023-02-21T08:34:09.232Z,11.58
2023-02-21T08:36:38.921Z,11.49
2023-02-21T08:39:07.932Z,11.37
2023-02-21T08:41:39.328Z,11.36
2023-02-21T08:44:07.190Z,11.36
2023-02-21T08:46:34.932Z,11.45
2023-02-21T08:49:05.135Z,11.53
2023-02-21T08:51:33.909Z,11.46
2023-02-21T08:54:02.156Z,11.46
2023-02-21T08:56:30.644Z,11.43
2023-02-21T08:58:58.338Z,11.47
2023-02-21T09:01:32.902Z,11.48
2023-02-21T09:04:00.329Z,11.65
2023-02-21T09:06:29.147Z,11.65
2023-02-21T09:08:57.434Z,11.62
2023-02-21T09:11:24.830Z,11.68
2023-02-21T09:13:53.007Z,11.70
2023-02-21T09:16:20.423Z,11.80
2023-02-21T09:18:55.155Z,11.84
2023-02-21T09:21:23.007Z,11.75
2023-02-21T09:23:55.231Z,11.79
2023-02-21T09:26:24.023Z,11.69
2023-02-21T09:28:51.743Z,11.82
2023-02-21T09:31:19.502Z,11.82
2023-02-21T09:33:47.321Z,11.87
2023-02-21T09:36:14.951Z,12.06
2023-02-21T09:38:42.808Z,12.14
2023-02-21T09:41:14.858Z,11.99
2023-02-21T09:43:46.228Z,12.13
2023-02-21T09:46:17.249Z,12.26
2023-02-21T09:48:45.309Z,12.33
2023-02-21T09:51:14.281Z,12.30
2023-02-21T09:53:45.198Z,12.32
2023-02-21T09:56:21.262Z,12.16
2023-02-21T09:58:50.408Z,12.21
2023-02-21T10:01:27.429Z,12.19
2023-02-21T10:04:06.114Z,12.19
2023-02-21T10:06:43.787Z,12.35
2023-02-21T10:09:26.174Z,12.52
2023-02-21T10:12:09.969Z,12.46
2023-02-21T10:14:44.282Z,12.40
2023-02-21T10:17:19.515Z,12.34
2023-02-21T10:19:51.523Z,12.30
2023-02-21T10:22:22.314Z,12.31
2023-02-21T10:24:51.114Z,12.31
2023-02-21T10:27:22.407Z,12.32
2023-02-21T10:29:55.397Z,12.40
2023-02-21T10:32:24.556Z,12.32
2023-02-21T10:34:54.782Z,12.29
2023-02-21T10:37:35.057Z,12.49
2023-02-21T10:40:09.147Z,12.54
2023-02-21T10:42:43.823Z,12.74
2023-02-21T10:45:12.955Z,12.69
2023-02-21T10:47:50.248Z,12.56
2023-02-21T10:50:36.457Z,12.47
2023-02-21T10:53:04.405Z,12.54
2023-02-21T10:55:33.511Z,12.53
2023-02-21T10:58:09.842Z,12.50
2023-02-21T11:00:39.712Z,12.60
2023-02-21T11:03:13.559Z,12.52
2023-02-21T11:05:41.032Z,12.58
2023-02-21T11:08:10.429Z,12.62
2023-02-21T11:10:41.527Z,12.61
2023-02-21T11:13:16.547Z,12.64
2023-02-21T11:15:44.885Z,12.56
2023-02-21T11:18:18.417Z,12.48
2023-02-21T11:20:47.680Z,12.46
2023-02-21T11:23:20.806Z,12.45
2023-02-21T11:25:50.060Z,12.40
2023-02-21T11:28:24.612Z,12.32
2023-02-21T11:31:07.619Z,12.39
2023-02-21T11:33:38.459Z,12.31
2023-02-21T11:36:12.642Z,12.34
2023-02-21T11:38:43.429Z,12.46
2023-02-21T11:41:18.599Z,12.41
2023-02-21T11:43:51.115Z,12.46
2023-02-21T11:46:29.143Z,12.43
2023-02-21T11:49:03.521Z,12.64
2023-02-21T11:51:36.053Z,12.55
2023-02-21T11:54:05.369Z,12.48
2023-02-21T11:56:40.328Z,12.46
2023-02-21T11:59:19.401Z,12.51
2023-02-21T12:01:55.839Z,12.38
2023-02-21T12:04:39.548Z,12.45
2023-02-21T12:07:17.228Z,12.45
2023-02-21T12:09:53.015Z,12.31
2023-02-21T12:12:31.598Z,12.32
2023-02-21T12:15:14.918Z,12.24
2023-02-21T12:17:59.292Z,12.26
2023-02-21T12:20:43.178Z,12.06
2023-02-21T12:23:19.872Z,12.18
2023-02-21T12:26:09.899Z,12.26
2023-02-21T12:28:54.678Z,12.22
2023-02-21T12:31:34.964Z,12.32
2023-02-21T12:34:16.000Z,12.35
2023-02-21T12:37:00.171Z,12.41
2023-02-21T12:39:42.576Z,12.51
2023-02-21T12:42:23.793Z,12.46
2023-02-21T12:45:03.368Z,12.60
2023-02-21T12:47:39.687Z,12.59
2023-02-21T12:50:15.383Z,12.68
2023-02-21T12:52:51.628Z,12.76
2023-02-21T12:55:23.211Z,12.90
2023-02-21T12:57:55.264Z,12.92
2023-02-21T13:00:25.338Z,12.94
2023-02-21T13:03:02.312Z,12.87
2023-02-21T13:05:39.718Z,12.75
2023-02-21T13:08:16.500Z,12.83
2023-02-21T13:10:53.293Z,12.90
2023-02-21T13:13:26.927Z,13.02
2023-02-21T13:15:57.544Z,12.78
2023-02-21T13:18:30.413Z,12.77
2023-02-21T13:21:05.083Z,12.79
2023-02-21T13:24:27.693Z,12.85
2023-02-21T13:27:19.255Z,12.75
2023-02-21T13:29:46.894Z,12.72
2023-02-21T13:32:17.267Z,12.63
2023-02-21T13:34:50.644Z,12.65
2023-02-21T13:37:20.467Z,12.67
2023-02-21T13:39:54.708Z,12.57
2023-02-21T13:42:25.869Z,12.66
2023-02-21T13:45:04.708Z,12.70
2023-02-21T13:48:18.592Z,12.74
2023-02-21T13:50:50.602Z,12.60
2023-02-21T13:53:21.183Z,12.61
2023-02-21T13:56:20.397Z,12.62
2023-02-21T13:58:49.164Z,12.55
2023-02-21T14:01:48.433Z,12.64
2023-02-21T14:04:51.154Z,12.49
2023-02-21T14:07:41.630Z,12.50
2023-02-21T14:10:21.571Z,12.46
2023-02-21T14:12:55.377Z,12.50
2023-02-21T14:15:22.888Z,12.72
2023-02-21T14:17:53.443Z,12.64
2023-02-21T14:20:24.118Z,12.59
2023-02-21T14:22:53.930Z,12.51
2023-02-21T14:25:24.451Z,12.58
2023-02-21T14:27:53.840Z,12.49
2023-02-21T14:30:35.535Z,12.61
2023-02-21T14:33:19.982Z,12.66
2023-02-21T14:35:56.596Z,12.56
2023-02-21T14:38:28.681Z,12.67
2023-02-21T14:41:04.727Z,12.54
2023-02-21T14:43:56.035Z,12.45
2023-02-21T14:46:44.263Z,12.55
2023-02-21T14:49:59.375Z,12.49
2023-02-21T14:52:59.937Z,12.58
2023-02-21T14:55:50.654Z,12.60
2023-02-21T14:58:43.301Z,12.58
2023-02-21T15:01:25.589Z,12.68
2023-02-21T15:04:09.937Z,12.57
2023-02-21T15:06:41.039Z,12.66
2023-02-21T15:09:14.074Z,12.52
2023-02-21T15:11:43.248Z,12.50
2023-02-21T15:14:23.713Z,12.59
2023-02-21T15:16:54.668Z,12.58
2023-02-21T15:19:29.280Z,12.44
2023-02-21T15:22:16.926Z,12.57
2023-02-21T15:25:11.829Z,12.50
2023-02-21T15:28:00.638Z,12.53
2023-02-21T15:30:32.259Z,12.57
2023-02-21T15:33:05.949Z,12.55
2023-02-21T15:35:36.974Z,12.51
2023-02-21T15:38:08.989Z,12.45
2023-02-21T15:40:37.149Z,12.47
2023-02-21T15:43:07.296Z,12.54
2023-02-21T15:45:44.986Z,12.35
2023-02-21T15:48:12.593Z,12.33
2023-02-21T15:50:43.805Z,12.43
2023-02-21T15:53:14.483Z,12.41
2023-02-21T15:55:42.290Z,12.45
2023-02-21T15:58:17.698Z,12.36
2023-02-21T16:00:46.909Z,12.38
2023-02-21T16:03:33.373Z,12.35
2023-02-21T16:06:21.295Z,12.28
2023-02-21T16:08:58.700Z,12.24
2023-02-21T16:11:28.529Z,12.33
2023-02-21T16:13:57.239Z,12.34
2023-02-21T16:16:24.689Z,12.16
2023-02-21T16:18:58.491Z,12.34
2023-02-21T16:21:29.315Z,12.17
2023-02-21T16:23:56.919Z,12.17
2023-02-21T16:26:28.123Z,12.22
2023-02-21T16:28:59.057Z,12.30
2023-02-21T16:31:29.554Z,12.16
2023-02-21T16:33:57.560Z,12.12
2023-02-21T16:36:27.311Z,12.14
2023-02-21T16:38:55.340Z,12.17
2023-02-21T16:41:22.808Z,12.17
2023-02-21T16:43:50.200Z,12.21
2023-02-21T16:46:28.314Z,12.19
2023-02-21T16:48:56.996Z,12.17
2023-02-21T16:51:24.477Z,12.14
2023-02-21T16:53:51.993Z,12.16
2023-02-21T16:56:19.598Z,12.14
2023-02-21T16:58:50.324Z,12.09
2023-02-21T17:01:25.146Z,12.04
2023-02-21T17:03:53.983Z,12.01
2023-02-21T17:06:23.406Z,11.96
2023-02-21T17:08:51.566Z,12.09
2023-02-21T17:11:19.270Z,12.08
2023-02-21T17:13:46.696Z,11.98
2023-02-21T17:16:14.561Z,12.10
2023-02-21T17:18:44.237Z,12.15
2023-02-21T17:21:11.838Z,11.95
2023-02-21T17:23:39.233Z,12.02
2023-02-21T17:26:06.643Z,11.97
2023-02-21T17:28:34.525Z,11.86
2023-02-21T17:31:01.930Z,11.99
2023-02-21T17:33:29.298Z,11.97
2023-02-21T17:35:58.006Z,11.94
2023-02-21T17:38:25.373Z,12.04
2023-02-21T17:40:53.475Z,11.96
2023-02-21T17:43:21.118Z,11.81
2023-02-21T17:45:48.528Z,11.95
2023-02-21T17:48:15.918Z,11.80
2023-02-21T17:50:43.279Z,11.91
2023-02-21T17:53:12.039Z,11.95
2023-02-21T17:55:39.911Z,12.01
2023-02-21T17:58:07.411Z,11.95
2023-02-21T18:00:35.415Z,11.93
2023-02-21T18:03:04.217Z,11.97
2023-02-21T18:05:31.696Z,11.84
2023-02-21T18:07:59.472Z,11.73
2023-02-21T18:10:28.431Z,11.80
2023-02-21T18:12:57.019Z,11.90
2023-02-21T18:15:28.840Z,11.73
2023-02-21T18:17:56.373Z,11.71
2023-02-21T18:20:24.818Z,11.71
2023-02-21T18:22:52.593Z,11.69
2023-02-21T18:25:21.396Z,11.70
2023-02-21T18:27:50.273Z,11.67
2023-02-21T18:30:18.285Z,11.78
2023-02-21T18:32:46.563Z,11.72
2023-02-21T18:35:15.640Z,11.60
2023-02-21T18:37:43.039Z,11.68
2023-02-21T18:40:11.819Z,11.61
2023-02-21T18:42:41.601Z,11.57
2023-02-21T18:45:12.624Z,11.60
2023-02-21T18:47:40.444Z,11.54
2023-02-21T18:50:08.519Z,11.64
2023-02-21T18:52:35.815Z,11.60
2023-02-21T18:55:04.091Z,11.60
2023-02-21T18:57:32.221Z,11.58
2023-02-21T19:00:00.520Z,11.59
2023-02-21T19:02:29.600Z,11.59
2023-02-21T19:04:57.001Z,11.59
2023-02-21T19:07:24.443Z,11.47
2023-02-21T19:09:52.095Z,11.53
2023-02-21T19:12:19.686Z,11.56
2023-02-21T19:14:47.159Z,11.71
2023-02-21T19:17:16.274Z,11.53
2023-02-21T19:19:45.036Z,11.58
2023-02-21T19:22:12.441Z,11.60
2023-02-21T19:24:39.807Z,11.50
2023-02-21T19:27:07.317Z,11.49
2023-02-21T19:29:34.725Z,11.59
2023-02-21T19:32:02.320Z,11.59
2023-02-21T19:34:29.807Z,11.60
2023-02-21T19:36:58.589Z,11.46
2023-02-21T19:39:26.035Z,11.49
2023-02-21T19:41:53.541Z,11.53
2023-02-21T19:44:21.150Z,11.50
2023-02-21T19:46:48.631Z,11.54
2023-02-21T19:49:18.419Z,11.43
2023-02-21T19:51:46.641Z,11.42
2023-02-21T19:54:17.739Z,11.45
2023-02-21T19:56:45.187Z,11.41
2023-02-21T19:59:13.115Z,11.36
2023-02-21T20:01:40.684Z,11.37
2023-02-21T20:04:09.255Z,11.40
2023-02-21T20:06:37.787Z,11.22
2023-02-21T20:09:06.721Z,11.20
2023-02-21T20:11:39.967Z,11.22
2023-02-21T20:14:07.403Z,11.22
2023-02-21T20:16:39.915Z,11.22
2023-02-21T20:19:08.270Z,11.31
2023-02-21T20:21:36.558Z,11.29
2023-02-21T20:24:06.711Z,11.31
2023-02-21T20:26:35.685Z,11.31
2023-02-21T20:29:03.374Z,11.19
2023-02-21T20:31:33.655Z,11.10
2023-02-21T20:34:02.850Z,11.15
2023-02-21T20:36:31.657Z,11.27
2023-02-21T20:38:59.097Z,11.23
2023-02-21T20:41:30.952Z,11.26
2023-02-21T20:44:00.537Z,11.11
2023-02-21T20:46:28.763Z,11.15
2023-02-21T20:48:58.539Z,11.15
2023-02-21T20:51:30.474Z,11.14
2023-02-21T20:54:00.203Z,11.15
2023-02-21T20:56:31.636Z,11.11
2023-02-21T20:59:00.583Z,11.23
2023-02-21T21:01:28.129Z,11.15
2023-02-21T21:03:56.975Z,11.25
2023-02-21T21:06:26.173Z,11.18
2023-02-21T21:08:53.661Z,11.07
2023-02-21T21:11:21.652Z,11.05
2023-02-21T21:13:50.022Z,11.03
2023-02-21T21:16:20.184Z,11.01
2023-02-21T21:18:47.833Z,10.97
2023-02-21T21:21:15.579Z,11.00
2023-02-21T21:23:43.134Z,10.95
2023-02-21T21:26:12.008Z,11.00
2023-02-21T21:28:43.225Z,10.96
2023-02-21T21:31:10.661Z,11.04
2023-02-21T21:33:39.409Z,11.10
2023-02-21T21:36:09.038Z,11.12
2023-02-21T21:38:38.686Z,11.06
2023-02-21T21:41:13.409Z,11.14
2023-02-21T21:43:41.509Z,11.16
2023-02-21T21:46:09.007Z,11.01
2023-02-21T21:48:36.421Z,10.94
2023-02-21T21:51:05.299Z,10.91
2023-02-21T21:53:32.730Z,11.00
2023-02-21T21:56:04.549Z,11.12
2023-02-21T21:58:33.709Z,10.90
2023-02-21T22:01:05.255Z,10.83
2023-02-21T22:03:32.991Z,10.90
2023-02-21T22:06:01.217Z,10.86
2023-02-21T22:08:31.340Z,10.94
2023-02-21T22:11:00.141Z,10.85
2023-02-21T22:13:29.442Z,10.83
2023-02-21T22:15:57.239Z,10.85
2023-02-21T22:18:24.877Z,10.84
2023-02-21T22:20:52.433Z,10.82
2023-02-21T22:23:22.512Z,10.94
2023-02-21T22:25:51.653Z,10.91
2023-02-21T22:28:19.118Z,10.87
2023-02-21T22:30:47.105Z,10.91
2023-02-21T22:33:17.883Z,10.92
2023-02-21T22:35:45.754Z,10.93
2023-02-21T22:38:14.490Z,10.84
2023-02-21T22:40:45.981Z,10.77
2023-02-21T22:43:15.270Z,10.74
2023-02-21T22:45:49.530Z,10.72
2023-02-21T22:48:20.432Z,10.72
2023-02-21T22:50:48.367Z,10.77
2023-02-21T22:53:18.745Z,10.83
2023-02-21T22:55:51.609Z,10.79
2023-02-21T22:58:21.687Z,10.79
2023-02-21T23:00:50.007Z,10.85
2023-02-21T23:03:17.913Z,10.57
2023-02-21T23:05:47.216Z,10.63
2023-02-21T23:08:16.790Z,10.61
2023-02-21T23:10:44.950Z,10.51
2023-02-21T23:13:15.003Z,10.60
2023-02-21T23:15:44.387Z,10.61
2023-02-21T23:18:18.043Z,10.49
2023-02-21T23:20:45.458Z,10.54
2023-02-21T23:23:14.050Z,10.51
2023-02-21T23:25:41.902Z,10.50
2023-02-21T23:28:12.110Z,10.46
2023-02-21T23:30:42.104Z,10.55
2023-02-21T23:33:14.385Z,10.42
2023-02-21T23:35:42.824Z,10.59
2023-02-21T23:38:15.369Z,10.57
2023-02-21T23:40:43.822Z,10.54
2023-02-21T23:43:11.849Z,10.55
2023-02-21T23:45:40.296Z,10.64
2023-02-21T23:48:09.124Z,10.52
2023-02-21T23:50:38.479Z,10.52
2023-02-21T23:53:06.830Z,10.62
2023-02-21T23:55:36.457Z,10.44
2023-02-21T23:58:08.910Z,10.42
